Map

Track Data

SID SEASON NUMBER BASIN SUBBASIN NAME ISO_TIME NATURE LAT LON WMO_WIND WMO_PRES WMO_AGENCY TRACK_TYPE DIST2LAND LANDFALL IFLAG USA_AGENCY USA_ATCF_ID USA_LAT USA_LON USA_RECORD USA_STATUS USA_WIND USA_PRES USA_SSHS USA_R34_NE USA_R34_SE USA_R34_SW USA_R34_NW USA_R50_NE USA_R50_SE USA_R50_SW USA_R50_NW USA_R64_NE USA_R64_SE USA_R64_SW USA_R64_NW USA_POCI USA_ROCI USA_RMW USA_EYE TOKYO_LAT TOKYO_LON TOKYO_GRADE TOKYO_WIND TOKYO_PRES TOKYO_R50_DIR TOKYO_R50_LONG TOKYO_R50_SHORT TOKYO_R30_DIR TOKYO_R30_LONG TOKYO_R30_SHORT TOKYO_LAND CMA_LAT CMA_LON CMA_CAT CMA_WIND CMA_PRES HKO_LAT HKO_LON HKO_CAT HKO_WIND HKO_PRES NEWDELHI_LAT NEWDELHI_LON NEWDELHI_GRADE NEWDELHI_WIND NEWDELHI_PRES NEWDELHI_CI NEWDELHI_DP NEWDELHI_POCI REUNION_LAT REUNION_LON REUNION_TYPE REUNION_WIND REUNION_PRES REUNION_TNUM REUNION_CI REUNION_RMW REUNION_R34_NE REUNION_R34_SE REUNION_R34_SW REUNION_R34_NW REUNION_R50_NE REUNION_R50_SE REUNION_R50_SW REUNION_R50_NW REUNION_R64_NE REUNION_R64_SE REUNION_R64_SW REUNION_R64_NW BOM_LAT BOM_LON BOM_TYPE BOM_WIND BOM_PRES BOM_TNUM BOM_CI BOM_RMW BOM_R34_NE BOM_R34_SE BOM_R34_SW BOM_R34_NW BOM_R50_NE BOM_R50_SE BOM_R50_SW BOM_R50_NW BOM_R64_NE BOM_R64_SE BOM_R64_SW BOM_R64_NW BOM_ROCI BOM_POCI BOM_EYE BOM_POS_METHOD BOM_PRES_METHOD NADI_LAT NADI_LON NADI_CAT NADI_WIND NADI_PRES WELLINGTON_LAT WELLINGTON_LON WELLINGTON_WIND WELLINGTON_PRES DS824_LAT DS824_LON DS824_STAGE DS824_WIND DS824_PRES TD9636_LAT TD9636_LON TD9636_STAGE TD9636_WIND TD9636_PRES TD9635_LAT TD9635_LON TD9635_WIND TD9635_PRES TD9635_ROCI NEUMANN_LAT NEUMANN_LON NEUMANN_CLASS NEUMANN_WIND NEUMANN_PRES MLC_LAT MLC_LON MLC_CLASS MLC_WIND MLC_PRES USA_GUST BOM_GUST BOM_GUST_PER REUNION_GUST REUNION_GUST_PER USA_SEAHGT USA_SEARAD_NE USA_SEARAD_SE USA_SEARAD_SW USA_SEARAD_NW STORM_SPEED STORM_DIR
1873225N14335 1873 13 NA NA NOT_NAMED 1873-08-13 00:00:00 TS 13.9000 -25.0000 40 hurdat_atl main 813 813 O_____________ hurdat_atl AL021873 13.9000 -25.0000 TS 40 0 10 277
1873225N14335 1873 13 NA NA NOT_NAMED 1873-08-13 03:00:00 TS 13.9627 -25.5024 main 865 865 P_____________ AL021873 13.9627 -25.5024 TS 40 0 10 276
1873225N14335 1873 13 NA NA NOT_NAMED 1873-08-13 06:00:00 TS 14.0000 -26.0000 40 hurdat_atl main 919 919 O_____________ hurdat_atl AL021873 14.0000 -26.0000 TS 40 0 10 272
1873225N14335 1873 13 NA NA NOT_NAMED 1873-08-13 09:00:00 TS 13.9999 -26.4926 main 973 973 P_____________ AL021873 13.9999 -26.4926 TS 40 0 10 270
1873225N14335 1873 13 NA NA NOT_NAMED 1873-08-13 12:00:00 TS 14.0000 -27.0000 40 hurdat_atl main 1026 1026 O_____________ hurdat_atl AL021873 14.0000 -27.0000 TS 40 0 10 273
1873225N14335 1873 13 NA NA NOT_NAMED 1873-08-13 15:00:00 TS 14.0499 -27.5349 main 1080 1080 P_____________ AL021873 14.0499 -27.5349 TS 40 0 11 275
1873225N14335 1873 13 NA NA NOT_NAMED 1873-08-13 18:00:00 TS 14.1000 -28.1000 40 hurdat_atl main 1144 1144 O_____________ hurdat_atl AL021873 14.1000 -28.1000 TS 40 0 11 273
1873225N14335 1873 13 NA NA NOT_NAMED 1873-08-13 21:00:00 TS 14.0998 -28.6851 main 1208 1208 P_____________ AL021873 14.0998 -28.6851 TS 45 0 12 270
1873225N14335 1873 13 NA NA NOT_NAMED 1873-08-14 00:00:00 TS 14.1000 -29.3000 50 hurdat_atl main 1273 1273 O_____________ hurdat_atl AL021873 14.1000 -29.3000 TS 50 0 12 272
1873225N14335 1873 13 NA NA NOT_NAMED 1873-08-14 03:00:00 TS 14.1423 -29.9350 main 1337 1337 P_____________ AL021873 14.1423 -29.9350 TS 50 0 13 275
1873225N14335 1873 13 NA NA NOT_NAMED 1873-08-14 06:00:00 TS 14.2000 -30.6000 50 hurdat_atl main 1412 1412 O_____________ hurdat_atl AL021873 14.2000 -30.6000 TS 50 0 14 275
1873225N14335 1873 13 NA NA NOT_NAMED 1873-08-14 09:00:00 TS 14.2501 -31.3225 main 1486 1486 P_____________ AL021873 14.2501 -31.3225 TS 50 0 14 274
1873225N14335 1873 13 NA NA NOT_NAMED 1873-08-14 12:00:00 TS 14.3000 -32.0000 50 hurdat_atl main 1562 1562 O_____________ hurdat_atl AL021873 14.3000 -32.0000 TS 50 0 11 275
1873225N14335 1873 13 NA NA NOT_NAMED 1873-08-14 15:00:00 TS 14.3495 -32.5001 main 1615 1615 P_____________ AL021873 14.3495 -32.5001 TS 50 0 10 276
1873225N14335 1873 13 NA NA NOT_NAMED 1873-08-14 18:00:00 TS 14.4000 -33.0000 50 hurdat_atl main 1669 1669 O_____________ hurdat_atl AL021873 14.4000 -33.0000 TS 50 0 11 275
1873225N14335 1873 13 NA NA NOT_NAMED 1873-08-14 21:00:00 TS 14.4575 -33.6625 main 1743 1743 P_____________ AL021873 14.4575 -33.6625 TS 50 0 14 274
1873225N14335 1873 13 NA NA NOT_NAMED 1873-08-15 00:00:00 TS 14.5000 -34.4000 50 hurdat_atl main 1819 1819 O_____________ hurdat_atl AL021873 14.5000 -34.4000 TS 50 0 14 272
1873225N14335 1873 13 NA NA NOT_NAMED 1873-08-15 03:00:00 TS 14.5074 -35.1501 main 1905 1905 P_____________ AL021873 14.5074 -35.1501 TS 50 0 15 270
1873225N14335 1873 13 NA NA NOT_NAMED 1873-08-15 06:00:00 TS 14.5000 -35.9000 50 hurdat_atl main 1980 1975 O_____________ hurdat_atl AL021873 14.5000 -35.9000 TS 50 0 14 269
1873225N14335 1873 13 NA NA NOT_NAMED 1873-08-15 09:00:00 TS 14.4924 -36.6300 main 1975 1913 P_____________ AL021873 14.4924 -36.6300 TS 50 0 14 270
1873225N14335 1873 13 NA NA NOT_NAMED 1873-08-15 12:00:00 TS 14.5000 -37.3000 50 hurdat_atl main 1913 1869 O_____________ hurdat_atl AL021873 14.5000 -37.3000 TS 50 0 12 272
1873225N14335 1873 13 NA NA NOT_NAMED 1873-08-15 15:00:00 TS 14.5421 -37.8575 main 1861 1824 P_____________ AL021873 14.5421 -37.8575 TS 50 0 11 275
1873225N14335 1873 13 NA NA NOT_NAMED 1873-08-15 18:00:00 TS 14.6000 -38.4000 50 hurdat_atl main 1824 1774 O_____________ hurdat_atl AL021873 14.6000 -38.4000 TS 50 0 11 275
1873225N14335 1873 13 NA NA NOT_NAMED 1873-08-15 21:00:00 TS 14.6498 -39.0200 main 1774 1724 P_____________ AL021873 14.6498 -39.0200 TS 55 0 13 275
1873225N14335 1873 13 NA NA NOT_NAMED 1873-08-16 00:00:00 TS 14.7000 -39.7000 60 hurdat_atl main 1724 1668 O_____________ hurdat_atl AL021873 14.7000 -39.7000 TS 60 0 14 274
1873225N14335 1873 13 NA NA NOT_NAMED 1873-08-16 03:00:00 TS 14.7424 -40.4351 main 1668 1614 P_____________ AL021873 14.7424 -40.4351 TS 60 0 15 274
1873225N14335 1873 13 NA NA NOT_NAMED 1873-08-16 06:00:00 TS 14.8000 -41.2000 60 hurdat_atl main 1614 1571 O_____________ hurdat_atl AL021873 14.8000 -41.2000 TS 60 0 15 276
1873225N14335 1873 13 NA NA NOT_NAMED 1873-08-16 09:00:00 TS 14.8849 -41.9650 main 1564 1524 P_____________ AL021873 14.8849 -41.9650 TS 60 0 15 278
1873225N14335 1873 13 NA NA NOT_NAMED 1873-08-16 12:00:00 TS 15.0000 -42.7000 60 hurdat_atl main 1524 1493 O_____________ hurdat_atl AL021873 15.0000 -42.7000 TS 60 0 14 281
1873225N14335 1873 13 NA NA NOT_NAMED 1873-08-16 15:00:00 TS 15.1420 -43.3501 main 1487 1468 P_____________ AL021873 15.1420 -43.3501 TS 60 0 13 283
1873225N14335 1873 13 NA NA NOT_NAMED 1873-08-16 18:00:00 TS 15.3000 -44.0000 60 hurdat_atl main 1468 1432 O_____________ hurdat_atl AL021873 15.3000 -44.0000 TS 60 0 14 283
1873225N14335 1873 13 NA NA NOT_NAMED 1873-08-16 21:00:00 TS 15.4424 -44.7352 main 1432 1399 P_____________ AL021873 15.4424 -44.7352 TS 65 1 15 282
1873225N14335 1873 13 NA NA NOT_NAMED 1873-08-17 00:00:00 TS 15.6000 -45.5000 70 hurdat_atl main 1399 1373 O_____________ hurdat_atl AL021873 15.6000 -45.5000 HU 70 1 15 284
1873225N14335 1873 13 NA NA NOT_NAMED 1873-08-17 03:00:00 TS 15.7843 -46.2128 main 1377 1355 P_____________ AL021873 15.7843 -46.2128 HU 70 1 15 285
1873225N14335 1873 13 NA NA NOT_NAMED 1873-08-17 06:00:00 TS 16.0000 -47.0000 70 hurdat_atl main 1355 1332 O_____________ hurdat_atl AL021873 16.0000 -47.0000 HU 70 1 18 285
1873225N14335 1873 13 NA NA NOT_NAMED 1873-08-17 09:00:00 TS 16.2505 -47.9998 main 1338 1315 P_____________ AL021873 16.2505 -47.9998 HU 70 1 20 285
1873225N14335 1873 13 NA NA NOT_NAMED 1873-08-17 12:00:00 TS 16.5000 -49.0000 70 hurdat_atl main 1315 1298 O_____________ hurdat_atl AL021873 16.5000 -49.0000 HU 70 1 18 284
1873225N14335 1873 13 NA NA NOT_NAMED 1873-08-17 15:00:00 TS 16.6918 -49.7880 main 1301 1292 P_____________ AL021873 16.6918 -49.7880 HU 70 1 15 286
1873225N14335 1873 13 NA NA NOT_NAMED 1873-08-17 18:00:00 TS 16.9000 -50.5000 70 hurdat_atl main 1296 1277 O_____________ hurdat_atl AL021873 16.9000 -50.5000 HU 70 1 15 289
1873225N14335 1873 13 NA NA NOT_NAMED 1873-08-17 21:00:00 TS 17.1771 -51.2427 main 1283 1233 P_____________ AL021873 17.1771 -51.2427 HU 70 1 16 293
1873225N14335 1873 13 NA NA NOT_NAMED 1873-08-18 00:00:00 TS 17.5000 -52.0000 70 hurdat_atl main 1233 1188 O_____________ hurdat_atl AL021873 17.5000 -52.0000 HU 70 1 16 295
1873225N14335 1873 13 NA NA NOT_NAMED 1873-08-18 03:00:00 TS 17.8574 -52.8074 main 1195 1156 P_____________ AL021873 17.8574 -52.8074 HU 70 1 17 295
1873225N14335 1873 13 NA NA NOT_NAMED 1873-08-18 06:00:00 TS 18.2000 -53.6000 70 hurdat_atl main 1157 1123 O_____________ hurdat_atl AL021873 18.2000 -53.6000 HU 70 1 16 292
1873225N14335 1873 13 NA NA NOT_NAMED 1873-08-18 09:00:00 TS 18.4421 -54.3157 main 1123 1101 P_____________ AL021873 18.4421 -54.3157 HU 70 1 14 291
1873225N14335 1873 13 NA NA NOT_NAMED 1873-08-18 12:00:00 TS 18.7000 -55.0000 70 hurdat_atl main 1103 1045 O_____________ hurdat_atl AL021873 18.7000 -55.0000 HU 70 1 15 296
1873225N14335 1873 13 NA NA NOT_NAMED 1873-08-18 15:00:00 TS 19.0847 -55.6925 main 1045 975 P_____________ AL021873 19.0847 -55.6925 HU 70 1 15 301
1873225N14335 1873 13 NA NA NOT_NAMED 1873-08-18 18:00:00 TS 19.5000 -56.4000 70 hurdat_atl main 975 906 O_____________ hurdat_atl AL021873 19.5000 -56.4000 HU 70 1 16 299
1873225N14335 1873 13 NA NA NOT_NAMED 1873-08-18 21:00:00 TS 19.8347 -57.1358 main 906 832 P_____________ AL021873 19.8347 -57.1358 HU 75 1 16 296
1873225N14335 1873 13 NA NA NOT_NAMED 1873-08-19 00:00:00 TS 20.2000 -57.9000 80 hurdat_atl main 832 761 O_____________ hurdat_atl AL021873 20.2000 -57.9000 HU 80 1 19 302
1873225N14335 1873 13 NA NA NOT_NAMED 1873-08-19 03:00:00 TS 20.8493 -58.8524 main 751 702 P_____________ AL021873 20.6923 -58.6998 HU 80 1 21 306
1873225N14335 1873 13 NA NA NOT_NAMED 1873-08-19 06:00:00 TS 21.4200 -59.7000 80 hurdat_atl main 702 669 O____________O hurdat_atl AL021873 21.2000 -59.5000 HU 80 1 22.3000 -60.5000 HU 80 18 305
1873225N14335 1873 13 NA NA NOT_NAMED 1873-08-19 09:00:00 TS 21.9088 -60.4590 main 660 647 P____________P AL021873 21.6074 -60.2880 HU 80 1 22.7603 -60.9118 HU 80 16 307
1873225N14335 1873 13 NA NA NOT_NAMED 1873-08-19 12:00:00 TS 22.4000 -61.1000 80 hurdat_atl main 647 640 O____________O hurdat_atl AL021873 22.0000 -61.0000 HU 80 1 23.2000 -61.3000 HU 80 14 311
1873225N14335 1873 13 NA NA NOT_NAMED 1873-08-19 15:00:00 TS 22.8253 -61.5890 main 644 644 P____________P AL021873 22.4342 -61.5584 HU 80 1 23.6073 -61.6504 HU 80 12 314
1873225N14335 1873 13 NA NA NOT_NAMED 1873-08-19 18:00:00 TS 23.2667 -62.0667 80 hurdat_atl main 657 651 O____________O hurdat_atl AL021873 22.9000 -62.1000 HU 80 1 24.0000 -62.0000 HU 80 14 313
1873225N14335 1873 13 NA NA NOT_NAMED 1873-08-19 21:00:00 TS 23.7385 -62.6715 main 664 664 P____________P AL021873 23.3927 -62.7999 HU 80 1 24.4301 -62.4147 HU 80 14 310
1873225N14335 1873 13 NA NA NOT_NAMED 1873-08-20 00:00:00 TS 24.2000 -63.2667 80 hurdat_atl main 690 690 O____________O hurdat_atl AL021873 23.9000 -63.5000 HU 80 1 24.8000 -62.8000 HU 80 985 13 311
1873225N14335 1873 13 NA NA NOT_NAMED 1873-08-20 03:00:00 TS 24.6047 -63.7473 main 720 717 P____________P AL021873 24.3921 -64.0807 HU 80 1 25.0298 -63.0804 HU 80 11 314
1873225N14335 1873 13 NA NA NOT_NAMED 1873-08-20 06:00:00 TS 25.0000 -64.1667 80 hurdat_atl main 751 751 O____________O hurdat_atl AL021873 24.9000 -64.6000 HU 80 1 25.2000 -63.3000 HU 80 11 318
1873225N14335 1873 13 NA NA NOT_NAMED 1873-08-20 09:00:00 TS 25.4356 -64.5719 main 789 789 P____________P AL021873 25.4647 -65.1077 HU 80 1 25.3774 -63.5003 HU 80 11 320
1873225N14335 1873 13 NA NA NOT_NAMED 1873-08-20 12:00:00 TS 25.8667 -64.9667 80 hurdat_atl main 840 840 O____________O hurdat_atl AL021873 26.0000 -65.6000 HU 80 1 25.6000 -63.7000 HU 80 11 317
1873225N14335 1873 13 NA NA NOT_NAMED 1873-08-20 15:00:00 TS 26.2500 -65.4011 main 878 873 P____________P AL021873 26.4075 -66.1230 HU 80 1 25.9351 -63.9573 HU 80 11 316
1873225N14335 1873 13 NA NA NOT_NAMED 1873-08-20 18:00:00 TS 26.6333 -65.8000 80 hurdat_atl main 891 891 O____________O hurdat_atl AL021873 26.8000 -66.6000 HU 80 1 26.3000 -64.2000 HU 80 10 321
1873225N14335 1873 13 NA NA NOT_NAMED 1873-08-20 21:00:00 TS 27.0490 -66.1136 main 917 917 P____________P AL021873 27.2698 -66.9878 HU 85 2 26.6074 -64.3652 HU 80 10 330
1873225N14335 1873 13 NA NA NOT_NAMED 1873-08-21 00:00:00 TS 27.5000 -66.3667 90 hurdat_atl main 955 955 O____________O hurdat_atl AL021873 27.8000 -67.3000 HU 90 2 26.9000 -64.5000 HU 80 10 335
1873225N14335 1873 13 NA NA NOT_NAMED 1873-08-21 03:00:00 TS 27.9799 -66.5986 main 997 997 P____________P AL021873 28.3774 -67.5728 HU 90 2 27.1850 -64.6501 HU 80 11 339
1873225N14335 1873 13 NA NA NOT_NAMED 1873-08-21 06:00:00 TS 28.5000 -66.8000 90 hurdat_atl main 1027 1027 O____________O hurdat_atl AL021873 29.0000 -67.8000 HU 90 2 27.5000 -64.8000 HU 80 12 343
1873225N14335 1873 13 NA NA NOT_NAMED 1873-08-21 09:00:00 TS 29.0866 -66.9933 main 1068 1037 P____________P AL021873 29.6875 -68.0224 HU 90 2 27.8849 -64.9352 HU 80 12 344
1873225N14335 1873 13 NA NA NOT_NAMED 1873-08-21 12:00:00 TS 29.6333 -67.1667 90 hurdat_atl main 1037 1000 O____________O hurdat_atl AL021873 30.3000 -68.2000 HU 90 2 28.3000 -65.1000 HU 80 10 343
1873225N14335 1873 13 NA NA NOT_NAMED 1873-08-21 15:00:00 TS 30.0324 -67.3244 main 1000 963 P____________P AL021873 30.6949 -68.3229 HU 90 2 28.7075 -65.3275 HU 80 8 340
1873225N14335 1873 13 NA NA NOT_NAMED 1873-08-21 18:00:00 TS 30.3667 -67.4667 90 hurdat_atl main 956 927 O____________O hurdat_atl AL021873 31.0000 -68.4000 HU 90 2 29.1000 -65.6000 HU 80 987 7 340
1873225N14335 1873 13 NA NA NOT_NAMED 1873-08-21 21:00:00 TS 30.7192 -67.6100 main 927 898 P____________P AL021873 31.3425 -68.4576 HU 90 2 29.4726 -65.9149 HU 80 7 342
1873225N14335 1873 13 NA NA NOT_NAMED 1873-08-22 00:00:00 TS 31.0667 -67.7333 90 hurdat_atl main 891 863 O____________O hurdat_atl AL021873 31.7000 -68.5000 HU 90 2 29.8000 -66.2000 HU 80 7 344
1873225N14335 1873 13 NA NA NOT_NAMED 1873-08-22 03:00:00 TS 31.4166 -67.8367 main 863 836 P____________P AL021873 32.0925 -68.5648 HU 90 2 30.0649 -66.3803 HU 82 7 348
1873225N14335 1873 13 NA NA NOT_NAMED 1873-08-22 06:00:00 TS 31.7667 -67.9000 90 hurdat_atl main 830 811 O____________O hurdat_atl AL021873 32.5000 -68.6000 HU 90 2 30.3000 -66.5000 HU 85 7 354
1873225N14335 1873 13 NA NA NOT_NAMED 1873-08-22 09:00:00 TS 32.1066 -67.9151 main 811 794 P____________P AL021873 32.8850 -68.5725 HU 90 2 30.5499 -66.6002 HU 87 7 0
1873225N14335 1873 13 NA NA NOT_NAMED 1873-08-22 12:00:00 TS 32.4667 -67.9000 90 hurdat_atl main 788 767 O____________O hurdat_atl AL021873 33.3000 -68.5000 HU 90 2 30.8000 -66.7000 HU 90 8 0
1873225N14335 1873 13 NA NA NOT_NAMED 1873-08-22 15:00:00 TS 32.8783 -67.8933 main 767 748 P____________P AL021873 33.7925 -68.4149 HU 90 2 31.0500 -66.8500 HU 92 8 3
1873225N14335 1873 13 NA NA NOT_NAMED 1873-08-22 18:00:00 TS 33.3000 -67.8667 90 hurdat_atl main 748 739 O____________O hurdat_atl AL021873 34.3000 -68.3000 HU 90 2 31.3000 -67.0000 HU 95 8 5
1873225N14335 1873 13 NA NA NOT_NAMED 1873-08-22 21:00:00 TS 33.6908 -67.8100 main 739 721 P____________P AL021873 34.7650 -68.1649 HU 95 2 31.5425 -67.1002 HU 97 10 4
1873225N14335 1873 13 NA NA NOT_NAMED 1873-08-23 00:00:00 TS 34.2727 -67.7818 100 hurdat_atl main 718 708 O____________O hurdat_atl AL021873 35.2000 -68.0000 HU 100 3 31.8000 -67.2000 MH 100 12 3
1873225N14335 1873 13 NA NA NOT_NAMED 1873-08-23 03:00:00 TS 34.8909 -67.7246 main 712 706 P____________P AL021873 35.5924 -67.8220 HU 100 3 32.0833 -67.3544 MH 100 13 7
1873225N14335 1873 13 NA NA NOT_NAMED 1873-08-23 06:00:00 TS 35.6000 -67.5889 100 hurdat_atl main 709 634 O____________O hurdat_atl AL021873 36.0000 -67.6000 HU 100 3 32.4000 -67.5000 MH 100 16 12
1873225N14335 1873 13 NA NA NOT_NAMED 1873-08-23 09:00:00 TS 36.4625 -67.3148 main 623 582 P_____________ AL021873 36.4625 -67.3148 HU 100 3 MH 15 19
1873225N14335 1873 13 NA NA NOT_NAMED 1873-08-23 12:00:00 TS 37.0000 -67.0000 100 hurdat_atl main 582 536 O_____________ hurdat_atl AL021873 37.0000 -67.0000 HU 100 3 MH 13 23
1873225N14335 1873 13 NA NA NOT_NAMED 1873-08-23 15:00:00 TS 37.6349 -66.6998 main 536 486 P_____________ AL021873 37.6349 -66.6998 HU 100 3 MH 14 20
1873225N14335 1873 13 NA NA NOT_NAMED 1873-08-23 18:00:00 TS 38.3000 -66.4000 100 hurdat_atl main 486 447 O_____________ hurdat_atl AL021873 38.3000 -66.4000 HU 100 3 MH 13 19
1873225N14335 1873 13 NA NA NOT_NAMED 1873-08-23 21:00:00 TS 38.8920 -66.1429 main 453 429 P_____________ AL021873 38.8920 -66.1429 HU 100 3 MH 13 21
1873225N14335 1873 13 NA NA NOT_NAMED 1873-08-24 00:00:00 TS 39.5000 -65.8000 100 hurdat_atl main 429 367 O_____________ hurdat_atl AL021873 39.5000 -65.8000 HU 100 3 MH 15 28
1873225N14335 1873 13 NA NA NOT_NAMED 1873-08-24 03:00:00 TS 40.2079 -65.2387 main 367 294 P_____________ AL021873 40.2079 -65.2387 HU 100 3 MH 17 33
1873225N14335 1873 13 NA NA NOT_NAMED 1873-08-24 06:00:00 TS 40.9000 -64.6000 100 hurdat_atl main 294 250 O_____________ hurdat_atl AL021873 40.9000 -64.6000 HU 100 3 MH 15 34
1873225N14335 1873 13 NA NA NOT_NAMED 1873-08-24 09:00:00 TS 41.4782 -64.1142 main 243 220 P_____________ AL021873 41.4782 -64.1142 HU 95 2 MH 14 37
1873225N14335 1873 13 NA NA NOT_NAMED 1873-08-24 12:00:00 TS 42.0000 -63.5000 90 hurdat_atl main 221 216 O_____________ hurdat_atl AL021873 42.0000 -63.5000 HU 90 2 MH 16 48
1873225N14335 1873 13 NA NA NOT_NAMED 1873-08-24 15:00:00 TS 42.5299 -62.5553 main 226 214 P_____________ AL021873 42.5299 -62.5553 HU 90 2 MH 18 57
1873225N14335 1873 13 NA NA NOT_NAMED 1873-08-24 18:00:00 TS 43.0000 -61.4000 90 hurdat_atl main 218 212 O_____________ hurdat_atl AL021873 43.0000 -61.4000 HU 90 2 MH 19 64
1873225N14335 1873 13 NA NA NOT_NAMED 1873-08-24 21:00:00 TS 43.3725 -60.1631 main 212 212 P_____________ AL021873 43.3725 -60.1631 HU 90 2 MH 19 69
1873225N14335 1873 13 NA NA NOT_NAMED 1873-08-25 00:00:00 TS 43.7000 -58.9000 90 962 hurdat_atl main 240 240 O_____________ hurdat_atl AL021873 43.7000 -58.9000 HU 90 962 2 MH 19 69
1873225N14335 1873 13 NA NA NOT_NAMED 1873-08-25 03:00:00 TS 44.0572 -57.6823 main 266 266 P_____________ AL021873 44.0572 -57.6823 HU 90 2 MH 18 67
1873225N14335 1873 13 NA NA NOT_NAMED 1873-08-25 06:00:00 TS 44.4000 -56.6000 90 hurdat_atl main 275 233 O_____________ hurdat_atl AL021873 44.4000 -56.6000 HU 90 2 MH 16 66
1873225N14335 1873 13 NA NA NOT_NAMED 1873-08-25 09:00:00 TS 44.6992 -55.6789 main 233 205 P_____________ AL021873 44.6992 -55.6789 HU 85 2 MH 13 62
1873225N14335 1873 13 NA NA NOT_NAMED 1873-08-25 12:00:00 TS 45.0000 -55.0000 80 hurdat_atl main 207 153 O_____________ hurdat_atl AL021873 45.0000 -55.0000 HU 80 1 MH 10 50
1873225N14335 1873 13 NA NA NOT_NAMED 1873-08-25 15:00:00 TS 45.3717 -54.5446 main 150 144 P_____________ AL021873 45.3717 -54.5446 HU 80 1 MH 6 17
1873225N14335 1873 13 NA NA NOT_NAMED 1873-08-25 18:00:00 MX 45.5333 -54.7667 80 hurdat_atl main 151 141 O____________O hurdat_atl AL021873 45.7000 -54.3000 HU 80 1 44.2000 -58.5000 EX 70 4 320
1873225N14335 1873 13 NA NA NOT_NAMED 1873-08-25 21:00:00 MX 45.6418 -54.8672 main 143 123 P____________P AL021873 45.8648 -54.1468 HU 80 1 44.7512 -57.7485 EX 70 3 342
1873225N14335 1873 13 NA NA NOT_NAMED 1873-08-26 00:00:00 MX 45.8091 -54.8909 80 hurdat_atl main 123 90 O____________O hurdat_atl AL021873 46.0000 -54.1000 HU 80 1 45.3000 -57.0000 EX 70 5 5
1873225N14335 1873 13 NA NA NOT_NAMED 1873-08-26 03:00:00 MX 46.1065 -54.8251 main 90 53 P____________P AL021873 46.2350 -54.0922 HU 80 1 45.8494 -56.2909 EX 67 7 17
1873225N14335 1873 13 NA NA NOT_NAMED 1873-08-26 06:00:00 MX 46.4667 -54.6000 80 hurdat_atl main 45 7 O____________O hurdat_atl AL021873 46.5000 -54.1000 HU 80 1 46.4000 -55.6000 EX 65 8 26
1873225N14335 1873 13 NA NA NOT_NAMED 1873-08-26 09:00:00 MX 46.8419 -54.3042 main 7 7 P____________P AL021873 46.7575 -54.0502 HU 75 1 47.0107 -54.8123 EX 62 8 28
1873225N14335 1873 13 NA NA NOT_NAMED 1873-08-26 12:00:00 MX 47.1667 -54.0667 70 hurdat_atl main 7 0 O____________O hurdat_atl AL021873 47.0000 -54.0000 HU 70 1 47.5000 -54.2000 EX 60 989 6 21
1873225N14335 1873 13 NA NA NOT_NAMED 1873-08-26 15:00:00 MX 47.3772 -53.9999 main 7 7 P____________P AL021873 47.2075 -53.9998 HU 70 1 47.7167 -54.0000 EX 57 4 6
1873225N14335 1873 13 NA NA NOT_NAMED 1873-08-26 18:00:00 MX 47.5333 -54.0000 70 hurdat_atl main 7 7 O____________O hurdat_atl AL021873 47.4000 -54.0000 HU 70 1 47.8000 -54.0000 EX 55 3 5
1873225N14335 1873 13 NA NA NOT_NAMED 1873-08-26 21:00:00 MX 47.7000 -53.9599 main 7 0 P____________P AL021873 47.6000 -53.9650 HU 70 1 47.9000 -53.9498 EX 55 3 12
1873225N14335 1873 13 NA NA NOT_NAMED 1873-08-27 00:00:00 MX 47.8667 -53.9000 70 hurdat_atl main 0 0 O____________O hurdat_atl AL021873 47.8000 -53.9000 HU 70 1 48.0000 -53.9000 EX 55 4 17
1873225N14335 1873 13 NA NA NOT_NAMED 1873-08-27 03:00:00 MX 48.0550 -53.8076 main 7 0 P____________P AL021873 48.0075 -53.8076 HU 70 1 48.1500 -53.8076 EX 52 4 20
1873225N14335 1873 13 NA NA NOT_NAMED 1873-08-27 06:00:00 MX 48.2333 -53.7000 70 hurdat_atl main 0 0 O____________O hurdat_atl AL021873 48.2000 -53.7000 HU 70 1 48.3000 -53.7000 EX 50 3 21
1873225N14335 1873 13 NA NA NOT_NAMED 1873-08-27 09:00:00 MX 48.3264 -53.6510 main 0 0 P____________P AL021873 48.3122 -53.6510 HU 65 1 48.3547 -53.6510 EX 50 3 26
1873225N14335 1873 13 NA NA NOT_NAMED 1873-08-27 12:00:00 ET 48.5000 -53.5000 60 hurdat_atl main 0 0 O____________O hurdat_atl AL021873 48.5000 -53.5000 EX 60 -4 48.5000 -53.5000 EX 50 7 31
1873225N14335 1873 13 NA NA NOT_NAMED 1873-08-27 15:00:00 ET 48.8949 -53.1325 main 33 31 P____________P AL021873 48.8974 -53.1325 EX 60 -4 48.8899 -53.1326 EX 47 11 33
1873225N14335 1873 13 NA NA NOT_NAMED 1873-08-27 18:00:00 ET 49.4000 -52.6000 60 hurdat_atl main 65 65 O____________O hurdat_atl AL021873 49.4000 -52.6000 EX 60 -4 49.4000 -52.6000 EX 45 13 36
1873225N14335 1873 13 NA NA NOT_NAMED 1873-08-27 21:00:00 ET 49.9223 -51.9957 main 126 126 P____________P AL021873 49.9223 -51.9957 EX 60 -4 49.9223 -51.9957 EX 45 13 40
1873225N14335 1873 13 NA NA NOT_NAMED 1873-08-28 00:00:00 ET 50.4000 -51.3000 60 hurdat_atl main 198 198 O____________O hurdat_atl AL021873 50.4000 -51.3000 EX 60 -4 50.4000 -51.3000 EX 45 12 49
1873225N14335 1873 13 NA NA NOT_NAMED 1873-08-28 03:00:00 ET 50.6993 -50.5834 main 258 258 P____________P AL021873 50.6993 -50.5834 EX 60 -4 50.6993 -50.5834 EX 45 11 58
1873225N14335 1873 13 NA NA NOT_NAMED 1873-08-28 06:00:00 ET 51.0000 -49.8000 60 hurdat_atl main 323 323 O____________O hurdat_atl AL021873 51.0000 -49.8000 EX 60 -4 51.0000 -49.8000 EX 45 13 53
1873225N14335 1873 13 NA NA NOT_NAMED 1873-08-28 09:00:00 ET 51.4695 -48.9372 main 405 405 P____________P AL021873 51.4695 -48.9372 EX 55 -4 51.4695 -48.9372 EX 45 15 48
1873225N14335 1873 13 NA NA NOT_NAMED 1873-08-28 12:00:00 ET 52.0000 -48.0000 50 hurdat_atl main 488 488 O____________O hurdat_atl AL021873 52.0000 -48.0000 EX 50 -4 52.0000 -48.0000 EX 45 16 49
1873225N14335 1873 13 NA NA NOT_NAMED 1873-08-28 15:00:00 ET 52.5117 -47.0162 main 575 575 P____________P AL021873 52.5117 -47.0162 EX 50 -4 52.5117 -47.0162 EX 45 16 51
1873225N14335 1873 13 NA NA NOT_NAMED 1873-08-28 18:00:00 ET 53.0000 -46.0000 50 hurdat_atl main 646 O____________O hurdat_atl AL021873 53.0000 -46.0000 EX 50 -4 53.0000 -46.0000 EX 45 16 51

About IBTrACS Database

This database is a web-friendly format of International Best Track Archive for Climate Stewardship (IBTrACS), a global best track data archive curated by NOAA dating back to 1842.

Updated: 2021-10-27